Terminal Aerodrome Forecast
Issued by NWS

Home | Current Version | Previous Version | Text Only | Print | Product List | Glossary On
Versions: 1 2 3 4 5 6 7 8 9 10 11 12 13 14 15 16 17 18
000
FTUS42 KMLB 010307 AAA
TAFFPR
TAF AMD
KFPR 010307Z 0103/0124 VRB04KT P6SM VCSH FEW010 SCT040 BKN060
      TEMPO 0103/0106 VRB15G25KT 3SM TSRA BR BKN015 BKN030CB BKN045
     FM010900 16005KT P6SM VCSH SCT040 OVC100
     FM011500 18011KT P6SM VCSH SCT020 BKN040 OVC100=

USA.gov is the U.S. government's official web portal to all federal, state and local government web resources and services.